createdAt,value
2018-05-07T00:00:34.041Z,13.90
2018-05-07T00:03:00.982Z,13.70
2018-05-07T00:05:28.339Z,13.70
2018-05-07T00:07:55.306Z,13.70
2018-05-07T00:10:22.298Z,13.70
2018-05-07T00:12:49.250Z,13.70
2018-05-07T00:15:16.210Z,13.70
2018-05-07T00:17:43.961Z,13.70
2018-05-07T00:20:11.693Z,13.70
2018-05-07T00:22:38.749Z,13.60
2018-05-07T00:25:05.639Z,13.70
2018-05-07T00:27:33.068Z,13.60
2018-05-07T00:30:00.438Z,13.60
2018-05-07T00:32:27.855Z,13.60
2018-05-07T00:34:55.294Z,13.50
2018-05-07T00:37:22.675Z,13.40
2018-05-07T00:39:50.856Z,13.50
2018-05-07T00:42:18.259Z,13.50
2018-05-07T00:44:45.670Z,13.50
2018-05-07T00:47:13.088Z,13.50
2018-05-07T00:49:40.494Z,13.50
2018-05-07T00:52:08.671Z,13.40
2018-05-07T00:54:47.827Z,13.40
2018-05-07T00:57:14.803Z,13.30
2018-05-07T00:59:42.546Z,13.30
2018-05-07T01:02:10.283Z,13.20
2018-05-07T01:04:37.243Z,13.20
2018-05-07T01:07:04.235Z,13.20
2018-05-07T01:09:31.648Z,13.20
2018-05-07T01:11:58.606Z,13.20
2018-05-07T01:14:26.037Z,13.30
2018-05-07T01:16:53.444Z,13.40
2018-05-07T01:19:20.854Z,13.40
2018-05-07T01:21:49.024Z,13.30
2018-05-07T01:24:16.439Z,13.30
2018-05-07T01:26:43.872Z,13.30
2018-05-07T01:29:11.279Z,13.30
2018-05-07T01:31:39.003Z,13.30
2018-05-07T01:34:06.419Z,13.20
2018-05-07T01:36:34.611Z,13.10
2018-05-07T01:39:02.019Z,13.10
2018-05-07T01:41:30.203Z,13.00
2018-05-07T01:43:57.632Z,13.00
2018-05-07T01:46:25.791Z,12.90
2018-05-07T01:48:53.526Z,12.90
2018-05-07T01:51:21.279Z,12.80
2018-05-07T01:53:48.242Z,12.80
2018-05-07T01:56:15.205Z,12.70
2018-05-07T01:58:42.166Z,12.70
2018-05-07T02:01:10.357Z,12.70
2018-05-07T02:03:37.747Z,12.70
2018-05-07T02:06:05.180Z,12.60
2018-05-07T02:08:32.559Z,12.60
2018-05-07T02:11:00.738Z,12.50
2018-05-07T02:13:28.143Z,12.50
2018-05-07T02:15:56.316Z,12.50
2018-05-07T02:18:24.491Z,12.50
2018-05-07T02:20:51.910Z,12.50
2018-05-07T02:23:20.096Z,12.40
2018-05-07T02:25:47.503Z,12.40
2018-05-07T02:28:15.688Z,12.40
2018-05-07T02:30:43.090Z,12.40
2018-05-07T02:33:10.516Z,12.30
2018-05-07T02:35:37.921Z,12.30
2018-05-07T02:38:05.356Z,12.30
2018-05-07T02:40:32.763Z,12.30
2018-05-07T02:43:00.188Z,12.20
2018-05-07T02:45:27.614Z,12.20
2018-05-07T02:47:55.023Z,12.10
2018-05-07T02:50:22.454Z,12.00
2018-05-07T02:52:50.628Z,11.90
2018-05-07T02:55:18.042Z,11.80
2018-05-07T02:57:46.226Z,11.70
2018-05-07T03:00:13.615Z,11.70
2018-05-07T03:02:41.035Z,11.70
2018-05-07T03:05:08.460Z,11.60
2018-05-07T03:07:35.875Z,11.60
2018-05-07T03:10:03.283Z,11.50
2018-05-07T03:12:30.691Z,11.50
2018-05-07T03:14:58.101Z,11.60
2018-05-07T03:17:25.576Z,11.60
2018-05-07T03:19:52.919Z,11.60
2018-05-07T03:22:20.340Z,11.70
2018-05-07T03:24:47.834Z,11.60
2018-05-07T03:27:15.928Z,11.60
2018-05-07T03:29:43.339Z,11.60
2018-05-07T03:32:11.540Z,11.60
2018-05-07T03:34:38.939Z,11.50
2018-05-07T03:37:07.114Z,11.50
2018-05-07T03:39:35.298Z,11.50
2018-05-07T03:42:02.718Z,11.40
2018-05-07T03:44:30.912Z,11.40
2018-05-07T03:46:58.320Z,11.40
2018-05-07T03:49:25.737Z,11.50
2018-05-07T03:51:53.145Z,11.60
2018-05-07T03:54:20.551Z,11.60
2018-05-07T03:56:47.951Z,11.60
2018-05-07T03:59:16.904Z,11.50
2018-05-07T04:01:44.290Z,11.40
2018-05-07T04:04:12.479Z,11.30
2018-05-07T04:06:41.559Z,11.30
2018-05-07T04:09:08.966Z,11.30
2018-05-07T04:11:37.145Z,11.30
2018-05-07T04:14:04.546Z,11.30
2018-05-07T04:16:43.880Z,11.30
2018-05-07T04:19:23.896Z,11.40
2018-05-07T04:22:03.225Z,11.40
2018-05-07T04:24:30.639Z,11.40
2018-05-07T04:26:58.051Z,11.40
2018-05-07T04:29:25.466Z,11.40
2018-05-07T04:31:53.639Z,11.70
2018-05-07T04:34:21.055Z,11.70
2018-05-07T04:36:49.232Z,11.80
2018-05-07T04:39:17.418Z,11.90
2018-05-07T04:41:44.841Z,11.90
2018-05-07T04:44:11.799Z,11.90
2018-05-07T04:46:39.209Z,12.00
2018-05-07T04:49:06.607Z,12.00
2018-05-07T04:51:34.012Z,12.00
2018-05-07T04:54:01.427Z,12.10
2018-05-07T04:56:29.603Z,12.10
2018-05-07T04:58:57.015Z,12.10
2018-05-07T05:01:25.195Z,12.20
2018-05-07T05:03:52.608Z,12.20
2018-05-07T05:06:20.785Z,12.30
2018-05-07T05:08:48.957Z,12.40
2018-05-07T05:11:16.363Z,12.30
2018-05-07T05:13:43.775Z,12.40
2018-05-07T05:16:11.196Z,12.40
2018-05-07T05:18:38.603Z,12.50
2018-05-07T05:21:06.811Z,12.60
2018-05-07T05:23:34.230Z,12.60
2018-05-07T05:26:01.644Z,12.60
2018-05-07T05:28:29.818Z,12.70
2018-05-07T05:30:57.244Z,12.70
2018-05-07T05:33:25.414Z,12.80
2018-05-07T05:35:52.833Z,12.80
2018-05-07T05:38:21.011Z,12.80
2018-05-07T05:40:48.431Z,12.80
2018-05-07T05:43:16.603Z,12.90
2018-05-07T05:45:44.774Z,12.90
2018-05-07T05:48:12.188Z,12.90
2018-05-07T05:50:39.602Z,13.00
2018-05-07T05:53:07.020Z,13.00
2018-05-07T05:55:34.423Z,13.10
2018-05-07T05:58:02.617Z,13.10
2018-05-07T06:00:30.023Z,13.10
2018-05-07T06:02:58.190Z,13.20
2018-05-07T06:05:25.607Z,13.20
2018-05-07T06:07:53.016Z,13.30
2018-05-07T06:10:20.431Z,13.40
2018-05-07T06:12:47.402Z,13.40
2018-05-07T06:15:14.372Z,13.50
2018-05-07T06:17:42.555Z,13.60
2018-05-07T06:20:09.529Z,13.60
2018-05-07T06:22:36.944Z,13.70
2018-05-07T06:25:03.986Z,13.70
2018-05-07T06:27:31.403Z,13.80
2018-05-07T06:29:58.378Z,13.90
2018-05-07T06:32:25.390Z,14.00
2018-05-07T06:34:52.838Z,14.00
2018-05-07T06:37:19.794Z,14.10
2018-05-07T06:39:47.967Z,14.10
2018-05-07T06:42:16.151Z,14.20
2018-05-07T06:44:43.562Z,14.20
2018-05-07T06:47:10.975Z,14.20
2018-05-07T06:49:38.407Z,14.30
2018-05-07T06:52:05.837Z,14.40
2018-05-07T06:54:33.238Z,14.40
2018-05-07T06:57:01.408Z,14.60
2018-05-07T06:59:28.827Z,14.60
2018-05-07T07:01:57.004Z,14.70
2018-05-07T07:04:24.411Z,14.70
2018-05-07T07:06:51.850Z,14.80
2018-05-07T07:09:19.251Z,14.90
2018-05-07T07:11:46.671Z,15.00
2018-05-07T07:14:14.075Z,15.10
2018-05-07T07:16:41.492Z,15.20
2018-05-07T07:19:08.907Z,15.30
2018-05-07T07:21:36.322Z,15.40
2018-05-07T07:24:03.746Z,15.50
2018-05-07T07:26:31.921Z,15.60
2018-05-07T07:29:00.099Z,15.70
2018-05-07T07:31:27.507Z,15.70
2018-05-07T07:33:55.733Z,15.90
2018-05-07T07:36:23.111Z,15.90
2018-05-07T07:38:51.286Z,16.10
2018-05-07T07:41:18.699Z,16.10
2018-05-07T07:43:46.887Z,16.30
2018-05-07T07:46:14.287Z,16.30
2018-05-07T07:48:41.696Z,16.40
2018-05-07T07:51:09.112Z,16.50
2018-05-07T07:53:36.556Z,16.70
2018-05-07T07:56:03.923Z,16.80
2018-05-07T07:58:31.331Z,16.80
2018-05-07T08:00:58.748Z,16.90
2018-05-07T08:03:26.171Z,16.90
2018-05-07T08:05:53.130Z,17.00
2018-05-07T08:08:21.311Z,17.10
2018-05-07T08:10:48.720Z,17.10
2018-05-07T08:13:16.887Z,17.20
2018-05-07T08:15:45.058Z,17.30
2018-05-07T08:18:12.486Z,17.30
2018-05-07T08:20:40.658Z,17.60
2018-05-07T08:23:08.068Z,17.60
2018-05-07T08:25:35.472Z,17.70
2018-05-07T08:28:02.447Z,17.80
2018-05-07T08:30:29.434Z,17.90
2018-05-07T08:32:56.807Z,18.10
2018-05-07T08:35:23.778Z,18.10
2018-05-07T08:37:50.752Z,18.20
2018-05-07T08:40:18.168Z,18.40
2018-05-07T08:42:45.563Z,18.50
2018-05-07T08:45:13.743Z,18.70
2018-05-07T08:47:40.711Z,18.60
2018-05-07T08:50:07.685Z,18.80
2018-05-07T08:52:35.452Z,19.00
2018-05-07T08:55:03.603Z,19.20
2018-05-07T08:57:31.357Z,19.10
2018-05-07T08:59:59.613Z,19.20
2018-05-07T09:02:27.779Z,19.30
2018-05-07T09:04:54.762Z,19.30
2018-05-07T09:07:22.171Z,19.40
2018-05-07T09:09:49.146Z,19.50
2018-05-07T09:12:16.150Z,19.50
2018-05-07T09:14:43.134Z,19.50
2018-05-07T09:17:10.905Z,19.70
2018-05-07T09:19:37.859Z,19.70
2018-05-07T09:22:04.830Z,19.80
2018-05-07T09:24:33.011Z,19.90
2018-05-07T09:27:00.419Z,19.90
2018-05-07T09:29:28.151Z,20.00
2018-05-07T09:31:55.563Z,20.00
2018-05-07T09:34:22.535Z,20.10
2018-05-07T09:36:49.504Z,20.00
2018-05-07T09:39:17.231Z,20.10
2018-05-07T09:41:45.416Z,20.20
2018-05-07T09:44:13.139Z,20.40
2018-05-07T09:46:40.874Z,20.60
2018-05-07T09:49:08.286Z,20.60
2018-05-07T09:51:35.267Z,20.70
2018-05-07T09:54:03.447Z,21.00
2018-05-07T09:56:30.851Z,21.00
2018-05-07T09:58:58.267Z,21.20
2018-05-07T10:01:25.281Z,21.20
2018-05-07T10:03:52.698Z,21.20
2018-05-07T10:06:20.114Z,21.30
2018-05-07T10:08:47.529Z,21.30
2018-05-07T10:11:14.943Z,21.30
2018-05-07T10:13:42.358Z,21.30
2018-05-07T10:16:09.775Z,21.40
2018-05-07T10:18:37.193Z,21.50
2018-05-07T10:21:04.609Z,21.70
2018-05-07T10:23:32.030Z,21.80
2018-05-07T10:26:00.203Z,22.10
2018-05-07T10:28:27.610Z,22.00
2018-05-07T10:30:55.782Z,22.20
2018-05-07T10:33:23.206Z,22.10
2018-05-07T10:35:50.603Z,22.20
2018-05-07T10:38:18.042Z,22.30
2018-05-07T10:40:45.459Z,22.40
2018-05-07T10:43:12.872Z,22.40
2018-05-07T10:45:41.042Z,22.70
2018-05-07T10:48:08.462Z,22.60
2018-05-07T10:50:35.425Z,22.80
2018-05-07T10:53:02.418Z,22.90
2018-05-07T10:55:29.836Z,23.10
2018-05-07T10:57:57.227Z,23.50
2018-05-07T11:00:24.243Z,23.90
2018-05-07T11:02:52.019Z,24.40
2018-05-07T11:05:18.998Z,24.40
2018-05-07T11:07:45.967Z,24.40
2018-05-07T11:10:13.703Z,24.90
2018-05-07T11:12:40.659Z,24.90
2018-05-07T11:15:07.621Z,25.10
2018-05-07T11:17:34.626Z,25.30
2018-05-07T11:20:01.602Z,25.60
2018-05-07T11:22:28.549Z,25.80
2018-05-07T11:24:56.296Z,26.40
2018-05-07T11:27:24.043Z,26.40
2018-05-07T11:29:51.475Z,26.40
2018-05-07T11:32:18.444Z,26.10
2018-05-07T11:34:46.166Z,26.20
2018-05-07T11:37:14.344Z,25.70
2018-05-07T11:39:42.078Z,25.10
2018-05-07T11:42:09.807Z,24.60
2018-05-07T11:44:37.222Z,24.50
2018-05-07T11:47:04.182Z,25.10
2018-05-07T11:49:31.170Z,26.00
2018-05-07T11:51:58.142Z,26.70
2018-05-07T11:54:25.153Z,26.80
2018-05-07T11:56:52.859Z,27.10
2018-05-07T11:59:20.590Z,27.60
2018-05-07T12:01:47.539Z,27.60
2018-05-07T12:04:14.594Z,28.20
2018-05-07T12:06:41.554Z,28.20
2018-05-07T12:09:08.634Z,28.00
2018-05-07T12:11:35.506Z,27.90
2018-05-07T12:14:02.493Z,27.70
2018-05-07T12:16:30.219Z,28.40
2018-05-07T12:18:58.391Z,28.70
2018-05-07T12:21:26.153Z,29.20
2018-05-07T12:23:53.133Z,29.20
2018-05-07T12:26:20.102Z,29.70
2018-05-07T12:28:47.843Z,29.80
2018-05-07T12:31:16.475Z,29.60
2018-05-07T12:33:43.365Z,29.50
2018-05-07T12:36:10.347Z,29.10
2018-05-07T12:38:37.751Z,29.20
2018-05-07T12:41:04.814Z,29.40
2018-05-07T12:43:31.818Z,29.70
2018-05-07T12:45:58.766Z,29.80
2018-05-07T12:48:25.738Z,29.50
2018-05-07T12:50:53.471Z,28.50
2018-05-07T12:53:21.219Z,29.20
2018-05-07T12:55:49.067Z,29.70
2018-05-07T12:58:17.986Z,29.90
2018-05-07T13:00:44.951Z,30.00
2018-05-07T13:03:12.355Z,30.10
2018-05-07T13:05:39.327Z,30.20
2018-05-07T13:08:06.743Z,30.50
2018-05-07T13:10:33.710Z,30.50
2018-05-07T13:13:01.155Z,30.00
2018-05-07T13:15:28.087Z,29.40
2018-05-07T13:17:55.049Z,29.60
2018-05-07T13:20:22.030Z,30.10
2018-05-07T13:22:49.000Z,30.50
2018-05-07T13:25:17.259Z,31.10
2018-05-07T13:27:45.001Z,30.40
2018-05-07T13:30:11.974Z,30.40
2018-05-07T13:32:38.948Z,30.20
2018-05-07T13:35:05.910Z,30.60
2018-05-07T13:37:33.648Z,30.90
2018-05-07T13:40:01.412Z,30.80
2018-05-07T13:42:28.378Z,30.80
2018-05-07T13:44:55.335Z,31.20
2018-05-07T13:47:22.319Z,30.90
2018-05-07T13:49:49.286Z,30.90
2018-05-07T13:52:16.264Z,30.50
2018-05-07T13:54:43.243Z,30.40
2018-05-07T13:57:10.658Z,29.50
2018-05-07T13:59:37.602Z,29.00
2018-05-07T14:02:05.005Z,29.30
2018-05-07T14:04:33.175Z,29.60
2018-05-07T14:07:00.156Z,29.60
2018-05-07T14:09:27.539Z,29.60
2018-05-07T14:11:54.505Z,29.90
2018-05-07T14:14:21.474Z,30.20
2018-05-07T14:16:49.239Z,28.60
2018-05-07T14:19:17.417Z,28.60
2018-05-07T14:21:44.832Z,28.60
2018-05-07T14:24:13.005Z,30.10
2018-05-07T14:26:41.180Z,29.30
2018-05-07T14:29:08.583Z,29.30
2018-05-07T14:31:36.000Z,28.90
2018-05-07T14:34:03.413Z,29.10
2018-05-07T14:36:30.820Z,29.30
2018-05-07T14:38:59.000Z,29.60
2018-05-07T14:41:27.178Z,30.10
2018-05-07T14:43:54.575Z,30.00
2018-05-07T14:46:22.759Z,30.40
2018-05-07T14:48:49.728Z,30.30
2018-05-07T14:51:17.189Z,30.30
2018-05-07T14:53:44.162Z,30.20
2018-05-07T14:56:11.160Z,30.10
2018-05-07T14:58:38.724Z,29.60
2018-05-07T15:01:06.059Z,29.10
2018-05-07T15:03:34.252Z,28.70
2018-05-07T15:06:01.652Z,28.70
2018-05-07T15:08:29.382Z,29.50
2018-05-07T15:10:56.364Z,29.50
2018-05-07T15:13:23.992Z,29.50
2018-05-07T15:15:50.886Z,29.50
2018-05-07T15:18:18.295Z,29.50
2018-05-07T15:20:45.271Z,29.10
2018-05-07T15:23:13.021Z,29.30
2018-05-07T15:25:40.018Z,29.30
2018-05-07T15:28:07.380Z,29.00
2018-05-07T15:30:34.783Z,28.70
2018-05-07T15:33:02.187Z,28.40
2018-05-07T15:35:30.358Z,28.00
2018-05-07T15:37:57.768Z,28.00
2018-05-07T15:40:25.172Z,28.10
2018-05-07T15:42:52.588Z,28.50
2018-05-07T15:45:19.554Z,29.10
2018-05-07T15:47:46.991Z,29.10
2018-05-07T15:50:14.386Z,28.50
2018-05-07T15:52:42.567Z,28.40
2018-05-07T15:55:10.008Z,28.40
2018-05-07T15:57:37.370Z,28.20
2018-05-07T16:00:04.327Z,28.20
2018-05-07T16:02:31.299Z,28.40
2018-05-07T16:04:58.724Z,28.70
2018-05-07T16:07:26.912Z,29.00
2018-05-07T16:09:53.888Z,28.90
2018-05-07T16:12:20.866Z,28.80
2018-05-07T16:14:47.867Z,28.70
2018-05-07T16:17:14.795Z,28.60
2018-05-07T16:19:42.959Z,28.40
2018-05-07T16:22:11.239Z,28.30
2018-05-07T16:24:38.551Z,28.30
2018-05-07T16:27:06.728Z,27.90
2018-05-07T16:29:34.139Z,27.90
2018-05-07T16:32:03.056Z,27.70
2018-05-07T16:34:30.495Z,27.70
2018-05-07T16:36:58.676Z,27.20
2018-05-07T16:39:26.111Z,27.20
2018-05-07T16:41:53.515Z,26.80
2018-05-07T16:44:21.698Z,26.50
2018-05-07T16:46:49.127Z,26.50
2018-05-07T16:49:17.300Z,26.40
2018-05-07T16:51:44.265Z,26.40
2018-05-07T16:54:11.740Z,26.30
2018-05-07T16:56:39.099Z,26.60
2018-05-07T16:59:07.276Z,27.20
2018-05-07T17:01:34.693Z,27.20
2018-05-07T17:04:02.863Z,27.30
2018-05-07T17:06:30.276Z,27.20
2018-05-07T17:08:57.688Z,27.10
2018-05-07T17:11:25.279Z,27.00
2018-05-07T17:13:52.507Z,26.90
2018-05-07T17:16:20.691Z,26.60
2018-05-07T17:18:48.117Z,26.60
2018-05-07T17:21:16.867Z,26.40
2018-05-07T17:23:45.058Z,26.40
2018-05-07T17:26:13.215Z,26.50
2018-05-07T17:28:40.630Z,26.40
2018-05-07T17:31:08.031Z,26.30
2018-05-07T17:33:35.480Z,26.00
2018-05-07T17:36:02.852Z,25.50
2018-05-07T17:38:30.271Z,25.20
2018-05-07T17:40:57.674Z,24.90
2018-05-07T17:43:25.079Z,24.60
2018-05-07T17:46:04.377Z,24.30
2018-05-07T17:48:43.686Z,24.10
2018-05-07T17:51:11.107Z,23.90
2018-05-07T17:53:38.508Z,23.90
2018-05-07T17:56:06.691Z,23.50
2018-05-07T17:58:34.096Z,23.50
2018-05-07T18:01:01.492Z,23.40
2018-05-07T18:03:28.911Z,23.40
2018-05-07T18:05:56.315Z,23.30
2018-05-07T18:08:23.717Z,23.10
2018-05-07T18:10:51.286Z,23.10
2018-05-07T18:13:18.592Z,23.10
2018-05-07T18:15:45.995Z,23.00
2018-05-07T18:18:14.181Z,22.70
2018-05-07T18:20:41.584Z,22.70
2018-05-07T18:23:08.997Z,22.60
2018-05-07T18:25:36.406Z,22.50
2018-05-07T18:28:03.823Z,22.40
2018-05-07T18:30:32.023Z,22.20
2018-05-07T18:32:59.422Z,22.20
2018-05-07T18:35:27.594Z,22.00
2018-05-07T18:37:55.010Z,22.00
2018-05-07T18:40:22.412Z,21.90
2018-05-07T18:42:49.816Z,21.80
2018-05-07T18:45:17.224Z,21.70
2018-05-07T18:47:44.632Z,21.60
2018-05-07T18:50:12.031Z,21.60
2018-05-07T18:52:40.216Z,21.40
2018-05-07T18:55:07.621Z,21.40
2018-05-07T18:57:35.803Z,21.20
2018-05-07T19:00:03.224Z,21.10
2018-05-07T19:02:30.630Z,21.10
2018-05-07T19:04:58.055Z,21.00
2018-05-07T19:07:25.463Z,20.90
2018-05-07T19:09:52.883Z,20.70
2018-05-07T19:12:21.054Z,20.60
2018-05-07T19:14:49.223Z,20.60
2018-05-07T19:17:16.639Z,20.50
2018-05-07T19:19:44.855Z,20.40
2018-05-07T19:22:12.250Z,20.40
2018-05-07T19:24:40.422Z,20.20
2018-05-07T19:27:07.822Z,20.10
2018-05-07T19:29:35.222Z,20.10
2018-05-07T19:32:02.631Z,19.90
2018-05-07T19:34:30.813Z,19.80
2018-05-07T19:36:58.282Z,19.70
2018-05-07T19:39:25.672Z,19.70
2018-05-07T19:41:53.834Z,19.60
2018-05-07T19:44:22.007Z,19.50
2018-05-07T19:46:49.406Z,19.50
2018-05-07T19:49:16.831Z,19.50
2018-05-07T19:51:44.223Z,19.50
2018-05-07T19:54:11.639Z,19.40
2018-05-07T19:56:39.826Z,19.30
2018-05-07T19:59:07.250Z,19.30
2018-05-07T20:01:35.434Z,19.20
2018-05-07T20:04:02.842Z,19.10
2018-05-07T20:06:30.263Z,19.10
2018-05-07T20:08:57.679Z,19.00
2018-05-07T20:11:25.079Z,19.00
2018-05-07T20:13:52.483Z,18.90
2018-05-07T20:16:19.887Z,18.80
2018-05-07T20:18:47.290Z,18.80
2018-05-07T20:21:15.479Z,18.70
2018-05-07T20:23:42.879Z,18.60
2018-05-07T20:26:10.286Z,18.70
2018-05-07T20:28:37.691Z,18.70
2018-05-07T20:31:05.109Z,18.70
2018-05-07T20:33:32.519Z,18.70
2018-05-07T20:35:59.951Z,18.60
2018-05-07T20:38:27.339Z,18.60
2018-05-07T20:40:55.520Z,18.50
2018-05-07T20:43:22.912Z,18.40
2018-05-07T20:45:50.323Z,18.40
2018-05-07T20:48:17.728Z,18.30
2018-05-07T20:50:45.916Z,18.20
2018-05-07T20:53:13.316Z,18.20
2018-05-07T20:55:41.487Z,18.00
2018-05-07T20:58:09.682Z,17.90
2018-05-07T21:00:36.642Z,17.90
2018-05-07T21:03:04.053Z,17.90
2018-05-07T21:05:31.460Z,17.90
2018-05-07T21:07:59.639Z,17.80
2018-05-07T21:10:27.043Z,17.80
2018-05-07T21:12:54.456Z,17.70
2018-05-07T21:15:21.418Z,17.70
2018-05-07T21:17:49.590Z,17.50
2018-05-07T21:20:17.768Z,17.50
2018-05-07T21:22:45.168Z,17.50
2018-05-07T21:25:12.572Z,17.50
2018-05-07T21:27:39.978Z,17.50
2018-05-07T21:30:07.389Z,17.50
2018-05-07T21:32:34.806Z,17.40
2018-05-07T21:35:02.197Z,17.40
2018-05-07T21:37:30.375Z,17.20
2018-05-07T21:39:57.807Z,17.20
2018-05-07T21:42:25.969Z,17.10
2018-05-07T21:44:53.383Z,17.10
2018-05-07T21:47:21.570Z,17.10
2018-05-07T21:49:48.974Z,17.00
2018-05-07T21:52:17.154Z,16.90
2018-05-07T21:54:44.579Z,16.90
2018-05-07T21:57:11.968Z,16.90
2018-05-07T21:59:39.391Z,16.80
2018-05-07T22:02:06.807Z,16.70
2018-05-07T22:04:34.971Z,16.50
2018-05-07T22:07:03.147Z,16.40
2018-05-07T22:09:30.547Z,16.40
2018-05-07T22:11:57.956Z,16.30
2018-05-07T22:14:25.371Z,16.30
2018-05-07T22:16:52.763Z,16.30
2018-05-07T22:19:20.179Z,16.20
2018-05-07T22:21:47.587Z,16.10
2018-05-07T22:24:15.003Z,16.10
2018-05-07T22:26:42.746Z,15.90
2018-05-07T22:29:09.701Z,15.90
2018-05-07T22:31:36.685Z,15.90
2018-05-07T22:34:03.637Z,15.80
2018-05-07T22:36:30.615Z,15.80
2018-05-07T22:38:57.561Z,15.70
2018-05-07T22:41:24.521Z,15.70
2018-05-07T22:43:52.245Z,15.40
2018-05-07T22:46:19.221Z,15.40
2018-05-07T22:48:46.947Z,15.30
2018-05-07T22:51:14.363Z,15.30
2018-05-07T22:53:41.337Z,15.30
2018-05-07T22:56:08.306Z,15.30
2018-05-07T22:58:35.710Z,15.30
2018-05-07T23:01:03.456Z,15.10
2018-05-07T23:03:30.406Z,15.10
2018-05-07T23:05:57.818Z,15.10
2018-05-07T23:08:24.771Z,15.00
2018-05-07T23:10:52.499Z,14.90
2018-05-07T23:13:19.460Z,14.90
2018-05-07T23:15:47.618Z,14.80
2018-05-07T23:18:14.605Z,14.80
2018-05-07T23:20:41.562Z,14.80
2018-05-07T23:23:08.558Z,14.80
2018-05-07T23:25:35.522Z,14.90
2018-05-07T23:28:03.277Z,14.80
2018-05-07T23:30:31.469Z,14.70
2018-05-07T23:32:58.859Z,14.70
2018-05-07T23:35:26.582Z,14.70
2018-05-07T23:37:54.307Z,14.70
2018-05-07T23:40:21.267Z,14.60
2018-05-07T23:42:48.241Z,14.50
2018-05-07T23:45:16.902Z,14.40
2018-05-07T23:47:44.643Z,14.40
2018-05-07T23:50:12.370Z,14.40
2018-05-07T23:52:39.371Z,14.30
2018-05-07T23:55:06.319Z,14.30
2018-05-07T23:57:33.294Z,14.40
